sensor_id;sensor_type;location;lat;lon;timestamp;P1;P2;P0
71794;PMS7003;59641;45.188;5.712;2023-12-04T00:00:35;21.00;19.67;15.00
71794;PMS7003;59641;45.188;5.712;2023-12-04T00:03:01;25.33;24.00;15.67
71794;PMS7003;59641;45.188;5.712;2023-12-04T00:05:26;15.33;15.33;12.67
71794;PMS7003;59641;45.188;5.712;2023-12-04T00:07:52;23.33;20.00;14.67
71794;PMS7003;59641;45.188;5.712;2023-12-04T00:10:17;20.33;17.67;12.33
71794;PMS7003;59641;45.188;5.712;2023-12-04T00:12:43;22.33;20.67;15.00
71794;PMS7003;59641;45.188;5.712;2023-12-04T00:15:08;21.67;19.33;14.33
71794;PMS7003;59641;45.188;5.712;2023-12-04T00:17:34;23.33;19.67;13.33
71794;PMS7003;59641;45.188;5.712;2023-12-04T00:20:04;27.00;26.00;19.00
71794;PMS7003;59641;45.188;5.712;2023-12-04T00:22:30;28.33;26.33;17.67
71794;PMS7003;59641;45.188;5.712;2023-12-04T00:24:56;25.33;23.33;17.00
71794;PMS7003;59641;45.188;5.712;2023-12-04T00:27:21;26.67;21.67;15.67
71794;PMS7003;59641;45.188;5.712;2023-12-04T00:29:51;21.67;17.67;14.00
71794;PMS7003;59641;45.188;5.712;2023-12-04T00:32:17;25.33;20.00;15.00
71794;PMS7003;59641;45.188;5.712;2023-12-04T00:34:42;25.00;21.67;14.00
71794;PMS7003;59641;45.188;5.712;2023-12-04T00:37:07;22.00;20.67;15.00
71794;PMS7003;59641;45.188;5.712;2023-12-04T00:39:33;26.67;22.33;15.67
71794;PMS7003;59641;45.188;5.712;2023-12-04T00:41:58;14.67;12.67;9.00
71794;PMS7003;59641;45.188;5.712;2023-12-04T00:44:23;20.67;18.67;13.67
71794;PMS7003;59641;45.188;5.712;2023-12-04T00:46:49;19.33;19.33;15.00
71794;PMS7003;59641;45.188;5.712;2023-12-04T00:49:14;17.00;16.67;11.33
71794;PMS7003;59641;45.188;5.712;2023-12-04T00:51:40;22.33;19.67;14.33
71794;PMS7003;59641;45.188;5.712;2023-12-04T00:54:05;21.00;19.00;13.33
71794;PMS7003;59641;45.188;5.712;2023-12-04T00:56:30;16.33;15.33;10.33
71794;PMS7003;59641;45.188;5.712;2023-12-04T00:58:56;17.67;17.33;12.33
71794;PMS7003;59641;45.188;5.712;2023-12-04T01:01:21;14.67;14.67;8.67
71794;PMS7003;59641;45.188;5.712;2023-12-04T01:03:46;12.67;11.33;9.33
71794;PMS7003;59641;45.188;5.712;2023-12-04T01:06:21;16.00;15.00;10.00
71794;PMS7003;59641;45.188;5.712;2023-12-04T01:08:47;13.33;13.33;11.00
71794;PMS7003;59641;45.188;5.712;2023-12-04T01:11:13;15.00;13.67;8.00
71794;PMS7003;59641;45.188;5.712;2023-12-04T01:13:39;17.67;17.00;14.00
71794;PMS7003;59641;45.188;5.712;2023-12-04T01:16:05;13.00;13.00;8.00
71794;PMS7003;59641;45.188;5.712;2023-12-04T01:18:31;16.33;15.00;10.33
71794;PMS7003;59641;45.188;5.712;2023-12-04T01:20:56;17.33;15.67;10.00
71794;PMS7003;59641;45.188;5.712;2023-12-04T01:23:21;16.33;14.00;9.00
71794;PMS7003;59641;45.188;5.712;2023-12-04T01:25:47;15.67;15.33;11.33
71794;PMS7003;59641;45.188;5.712;2023-12-04T01:28:12;17.67;15.33;11.33
71794;PMS7003;59641;45.188;5.712;2023-12-04T01:30:39;19.67;18.00;12.33
71794;PMS7003;59641;45.188;5.712;2023-12-04T01:33:04;15.00;14.33;10.33
71794;PMS7003;59641;45.188;5.712;2023-12-04T01:35:30;16.00;16.00;11.33
71794;PMS7003;59641;45.188;5.712;2023-12-04T01:37:55;15.00;15.00;11.33
71794;PMS7003;59641;45.188;5.712;2023-12-04T01:40:20;14.00;14.00;10.00
71794;PMS7003;59641;45.188;5.712;2023-12-04T01:42:46;18.00;15.33;10.67
71794;PMS7003;59641;45.188;5.712;2023-12-04T01:45:11;18.00;15.00;10.67
71794;PMS7003;59641;45.188;5.712;2023-12-04T01:47:36;18.67;15.67;12.33
71794;PMS7003;59641;45.188;5.712;2023-12-04T01:50:03;17.33;16.67;12.67
71794;PMS7003;59641;45.188;5.712;2023-12-04T01:52:29;19.00;15.00;10.00
71794;PMS7003;59641;45.188;5.712;2023-12-04T01:54:55;15.33;15.00;10.00
71794;PMS7003;59641;45.188;5.712;2023-12-04T01:57:20;15.67;15.67;11.67
71794;PMS7003;59641;45.188;5.712;2023-12-04T01:59:46;13.33;13.33;10.67
71794;PMS7003;59641;45.188;5.712;2023-12-04T02:02:12;17.00;16.67;13.00
71794;PMS7003;59641;45.188;5.712;2023-12-04T02:04:38;22.00;15.00;9.00
71794;PMS7003;59641;45.188;5.712;2023-12-04T02:07:03;16.00;12.00;9.00
71794;PMS7003;59641;45.188;5.712;2023-12-04T02:09:29;15.33;13.67;10.00
71794;PMS7003;59641;45.188;5.712;2023-12-04T02:11:55;16.00;15.00;9.00
71794;PMS7003;59641;45.188;5.712;2023-12-04T02:14:22;13.00;12.33;9.00
71794;PMS7003;59641;45.188;5.712;2023-12-04T02:16:47;18.67;15.00;10.33
71794;PMS7003;59641;45.188;5.712;2023-12-04T02:19:14;14.33;13.00;9.00
71794;PMS7003;59641;45.188;5.712;2023-12-04T02:21:40;16.67;15.00;10.00
71794;PMS7003;59641;45.188;5.712;2023-12-04T02:24:05;14.67;11.67;9.33
71794;PMS7003;59641;45.188;5.712;2023-12-04T02:26:37;13.00;12.00;9.00
71794;PMS7003;59641;45.188;5.712;2023-12-04T02:29:07;10.67;10.00;8.00
71794;PMS7003;59641;45.188;5.712;2023-12-04T02:31:39;17.67;15.00;11.00
71794;PMS7003;59641;45.188;5.712;2023-12-04T02:34:06;13.00;13.00;8.00
71794;PMS7003;59641;45.188;5.712;2023-12-04T02:36:35;13.00;13.00;9.00
71794;PMS7003;59641;45.188;5.712;2023-12-04T02:39:01;14.33;12.00;9.00
71794;PMS7003;59641;45.188;5.712;2023-12-04T02:41:27;15.33;14.00;11.00
71794;PMS7003;59641;45.188;5.712;2023-12-04T02:43:52;19.67;14.33;10.33
71794;PMS7003;59641;45.188;5.712;2023-12-04T02:46:18;16.33;14.00;8.67
71794;PMS7003;59641;45.188;5.712;2023-12-04T02:48:43;19.67;16.00;11.00
71794;PMS7003;59641;45.188;5.712;2023-12-04T02:51:09;11.33;10.67;9.00
71794;PMS7003;59641;45.188;5.712;2023-12-04T02:53:35;12.33;11.33;7.33
71794;PMS7003;59641;45.188;5.712;2023-12-04T02:56:00;15.00;10.33;9.00
71794;PMS7003;59641;45.188;5.712;2023-12-04T02:58:26;13.00;12.33;8.00
71794;PMS7003;59641;45.188;5.712;2023-12-04T03:00:51;13.67;9.33;8.67
71794;PMS7003;59641;45.188;5.712;2023-12-04T03:03:16;12.67;11.67;8.67
71794;PMS7003;59641;45.188;5.712;2023-12-04T03:05:42;13.67;11.67;9.00
71794;PMS7003;59641;45.188;5.712;2023-12-04T03:08:07;15.67;15.67;10.33
71794;PMS7003;59641;45.188;5.712;2023-12-04T03:10:32;13.67;12.67;8.33
71794;PMS7003;59641;45.188;5.712;2023-12-04T03:12:58;15.00;12.33;9.00
71794;PMS7003;59641;45.188;5.712;2023-12-04T03:15:23;15.67;13.00;9.33
71794;PMS7003;59641;45.188;5.712;2023-12-04T03:17:48;15.33;13.00;9.00
71794;PMS7003;59641;45.188;5.712;2023-12-04T03:20:14;13.67;13.67;8.33
71794;PMS7003;59641;45.188;5.712;2023-12-04T03:22:39;16.00;11.00;8.67
71794;PMS7003;59641;45.188;5.712;2023-12-04T03:25:05;14.00;10.67;7.67
71794;PMS7003;59641;45.188;5.712;2023-12-04T03:27:30;13.00;9.00;8.33
71794;PMS7003;59641;45.188;5.712;2023-12-04T03:29:56;13.67;13.00;9.00
71794;PMS7003;59641;45.188;5.712;2023-12-04T03:32:21;16.67;14.00;9.00
71794;PMS7003;59641;45.188;5.712;2023-12-04T03:34:46;17.67;15.00;9.67
71794;PMS7003;59641;45.188;5.712;2023-12-04T03:37:12;14.67;13.00;8.33
71794;PMS7003;59641;45.188;5.712;2023-12-04T03:39:37;11.33;11.33;9.00
71794;PMS7003;59641;45.188;5.712;2023-12-04T03:42:03;8.67;8.67;7.33
71794;PMS7003;59641;45.188;5.712;2023-12-04T03:44:28;14.00;12.00;9.00
71794;PMS7003;59641;45.188;5.712;2023-12-04T03:46:53;10.33;10.33;9.00
71794;PMS7003;59641;45.188;5.712;2023-12-04T03:49:19;15.00;11.33;8.00
71794;PMS7003;59641;45.188;5.712;2023-12-04T03:51:44;10.00;10.00;8.00
71794;PMS7003;59641;45.188;5.712;2023-12-04T03:54:10;10.00;9.00;7.00
71794;PMS7003;59641;45.188;5.712;2023-12-04T03:56:35;7.33;7.33;6.33
71794;PMS7003;59641;45.188;5.712;2023-12-04T03:59:00;7.50;7.50;5.00
71794;PMS7003;59641;45.188;5.712;2023-12-04T04:01:26;4.00;4.00;3.75
71794;PMS7003;59641;45.188;5.712;2023-12-04T04:03:51;7.67;6.00;4.00
71794;PMS7003;59641;45.188;5.712;2023-12-04T04:06:16;7.00;7.00;5.00
71794;PMS7003;59641;45.188;5.712;2023-12-04T04:08:42;8.33;7.00;4.00
71794;PMS7003;59641;45.188;5.712;2023-12-04T04:11:07;9.00;8.00;6.00
71794;PMS7003;59641;45.188;5.712;2023-12-04T04:13:32;9.33;8.00;6.67
71794;PMS7003;59641;45.188;5.712;2023-12-04T04:15:58;15.33;9.67;5.33
71794;PMS7003;59641;45.188;5.712;2023-12-04T04:18:23;9.00;7.67;5.33
71794;PMS7003;59641;45.188;5.712;2023-12-04T04:20:48;7.00;7.00;5.33
71794;PMS7003;59641;45.188;5.712;2023-12-04T04:23:14;7.67;6.33;4.00
71794;PMS7003;59641;45.188;5.712;2023-12-04T04:25:39;9.00;9.00;7.00
71794;PMS7003;59641;45.188;5.712;2023-12-04T04:28:04;4.00;3.67;3.33
71794;PMS7003;59641;45.188;5.712;2023-12-04T04:30:30;5.00;4.00;3.00
71794;PMS7003;59641;45.188;5.712;2023-12-04T04:32:55;7.00;6.67;6.00
71794;PMS7003;59641;45.188;5.712;2023-12-04T04:35:20;5.33;5.33;4.00
71794;PMS7003;59641;45.188;5.712;2023-12-04T04:37:46;10.00;9.00;7.00
71794;PMS7003;59641;45.188;5.712;2023-12-04T04:40:11;5.33;5.33;4.00
71794;PMS7003;59641;45.188;5.712;2023-12-04T04:42:36;9.67;9.00;7.33
71794;PMS7003;59641;45.188;5.712;2023-12-04T04:45:02;10.33;9.00;7.00
71794;PMS7003;59641;45.188;5.712;2023-12-04T04:47:27;10.33;9.00;7.00
71794;PMS7003;59641;45.188;5.712;2023-12-04T04:49:53;9.67;9.67;7.00
71794;PMS7003;59641;45.188;5.712;2023-12-04T04:52:18;12.00;10.00;8.00
71794;PMS7003;59641;45.188;5.712;2023-12-04T04:54:43;13.33;10.33;7.00
71794;PMS7003;59641;45.188;5.712;2023-12-04T04:57:09;11.67;9.33;8.33
71794;PMS7003;59641;45.188;5.712;2023-12-04T04:59:34;11.33;10.67;9.00
71794;PMS7003;59641;45.188;5.712;2023-12-04T05:01:59;12.00;10.00;8.00
71794;PMS7003;59641;45.188;5.712;2023-12-04T05:04:25;13.00;10.33;8.00
71794;PMS7003;59641;45.188;5.712;2023-12-04T05:06:50;10.00;8.67;6.33
71794;PMS7003;59641;45.188;5.712;2023-12-04T05:09:16;9.67;7.67;5.67
71794;PMS7003;59641;45.188;5.712;2023-12-04T05:11:41;8.00;8.00;5.33
71794;PMS7003;59641;45.188;5.712;2023-12-04T05:14:06;8.33;7.67;6.00
71794;PMS7003;59641;45.188;5.712;2023-12-04T05:16:31;10.25;7.75;4.00
71794;PMS7003;59641;45.188;5.712;2023-12-04T05:18:57;9.00;7.75;5.25
71794;PMS7003;59641;45.188;5.712;2023-12-04T05:21:22;8.67;8.67;7.00
71794;PMS7003;59641;45.188;5.712;2023-12-04T05:23:47;4.50;4.25;4.00
71794;PMS7003;59641;45.188;5.712;2023-12-04T05:26:13;4.75;4.75;4.00
71794;PMS7003;59641;45.188;5.712;2023-12-04T05:28:38;7.00;6.75;3.75
71794;PMS7003;59641;45.188;5.712;2023-12-04T05:31:04;8.00;7.25;5.00
71794;PMS7003;59641;45.188;5.712;2023-12-04T05:33:30;7.75;5.25;4.00
71794;PMS7003;59641;45.188;5.712;2023-12-04T05:35:55;5.25;5.25;4.00
71794;PMS7003;59641;45.188;5.712;2023-12-04T05:38:21;6.75;6.75;4.00
71794;PMS7003;59641;45.188;5.712;2023-12-04T05:40:46;5.25;5.25;4.00
71794;PMS7003;59641;45.188;5.712;2023-12-04T05:43:12;7.75;5.25;4.00
71794;PMS7003;59641;45.188;5.712;2023-12-04T05:45:38;6.50;6.50;4.00
71794;PMS7003;59641;45.188;5.712;2023-12-04T05:48:04;5.25;5.25;4.00
71794;PMS7003;59641;45.188;5.712;2023-12-04T05:50:30;7.67;5.67;5.00
71794;PMS7003;59641;45.188;5.712;2023-12-04T05:52:55;8.00;8.00;4.67
71794;PMS7003;59641;45.188;5.712;2023-12-04T05:55:20;8.25;7.00;4.00
71794;PMS7003;59641;45.188;5.712;2023-12-04T05:57:46;5.00;4.75;3.75
71794;PMS7003;59641;45.188;5.712;2023-12-04T06:00:11;3.50;3.50;3.25
71794;PMS7003;59641;45.188;5.712;2023-12-04T06:02:46;5.25;4.00;3.75
71794;PMS7003;59641;45.188;5.712;2023-12-04T06:05:12;7.00;6.75;4.00
71794;PMS7003;59641;45.188;5.712;2023-12-04T06:07:37;7.50;3.25;3.00
71794;PMS7003;59641;45.188;5.712;2023-12-04T06:10:03;6.00;4.25;3.75
71794;PMS7003;59641;45.188;5.712;2023-12-04T06:12:33;4.00;4.00;3.00
71794;PMS7003;59641;45.188;5.712;2023-12-04T06:14:58;5.33;5.33;3.00
71794;PMS7003;59641;45.188;5.712;2023-12-04T06:17:24;8.50;7.00;3.75
71794;PMS7003;59641;45.188;5.712;2023-12-04T06:19:50;9.50;5.25;4.00
71794;PMS7003;59641;45.188;5.712;2023-12-04T06:22:16;9.25;8.25;6.00
71794;PMS7003;59641;45.188;5.712;2023-12-04T06:24:43;5.50;5.50;4.25
71794;PMS7003;59641;45.188;5.712;2023-12-04T06:27:09;9.00;7.00;4.00
71794;PMS7003;59641;45.188;5.712;2023-12-04T06:29:39;7.00;6.00;4.25
71794;PMS7003;59641;45.188;5.712;2023-12-04T06:32:05;9.25;7.00;3.00
71794;PMS7003;59641;45.188;5.712;2023-12-04T06:34:31;5.50;4.00;3.00
71794;PMS7003;59641;45.188;5.712;2023-12-04T06:36:57;8.00;7.50;4.50
71794;PMS7003;59641;45.188;5.712;2023-12-04T06:39:24;4.00;4.00;3.75
71794;PMS7003;59641;45.188;5.712;2023-12-04T06:41:52;4.50;4.50;3.25
71794;PMS7003;59641;45.188;5.712;2023-12-04T06:44:19;4.50;4.00;3.50
71794;PMS7003;59641;45.188;5.712;2023-12-04T06:46:45;4.00;3.00;2.00
71794;PMS7003;59641;45.188;5.712;2023-12-04T06:49:15;3.25;2.50;2.50
71794;PMS7003;59641;45.188;5.712;2023-12-04T06:51:42;3.50;3.00;2.75
71794;PMS7003;59641;45.188;5.712;2023-12-04T06:54:07;6.00;4.33;3.00
71794;PMS7003;59641;45.188;5.712;2023-12-04T06:56:33;3.50;3.25;2.25
71794;PMS7003;59641;45.188;5.712;2023-12-04T06:58:58;3.25;2.00;1.00
71794;PMS7003;59641;45.188;5.712;2023-12-04T07:01:23;7.00;5.00;3.50
71794;PMS7003;59641;45.188;5.712;2023-12-04T07:03:49;6.50;6.50;4.75
71794;PMS7003;59641;45.188;5.712;2023-12-04T07:06:14;3.00;3.00;2.75
71794;PMS7003;59641;45.188;5.712;2023-12-04T07:08:40;6.67;5.33;3.33
71794;PMS7003;59641;45.188;5.712;2023-12-04T07:11:05;6.50;6.25;3.75
71794;PMS7003;59641;45.188;5.712;2023-12-04T07:13:32;9.75;9.75;7.00
71794;PMS7003;59641;45.188;5.712;2023-12-04T07:15:58;4.00;3.75;3.00
71794;PMS7003;59641;45.188;5.712;2023-12-04T07:18:25;5.25;4.00;3.00
71794;PMS7003;59641;45.188;5.712;2023-12-04T07:20:50;5.00;5.00;3.50
71794;PMS7003;59641;45.188;5.712;2023-12-04T07:23:16;8.25;6.50;4.50
71794;PMS7003;59641;45.188;5.712;2023-12-04T07:25:41;6.00;5.25;3.75
71794;PMS7003;59641;45.188;5.712;2023-12-04T07:28:06;4.00;4.00;2.00
71794;PMS7003;59641;45.188;5.712;2023-12-04T07:30:31;4.25;4.00;3.00
71794;PMS7003;59641;45.188;5.712;2023-12-04T07:32:57;8.50;7.25;5.00
71794;PMS7003;59641;45.188;5.712;2023-12-04T07:35:22;3.75;3.25;3.00
71794;PMS7003;59641;45.188;5.712;2023-12-04T07:37:48;8.00;6.50;4.00
71794;PMS7003;59641;45.188;5.712;2023-12-04T07:40:13;5.75;5.50;3.00
71794;PMS7003;59641;45.188;5.712;2023-12-04T07:42:39;6.50;5.25;3.00
71794;PMS7003;59641;45.188;5.712;2023-12-04T07:45:04;6.75;5.75;4.00
71794;PMS7003;59641;45.188;5.712;2023-12-04T07:47:30;8.00;4.00;3.50
71794;PMS7003;59641;45.188;5.712;2023-12-04T07:49:56;8.00;8.00;5.25
71794;PMS7003;59641;45.188;5.712;2023-12-04T07:52:21;3.00;3.00;2.00
71794;PMS7003;59641;45.188;5.712;2023-12-04T07:54:46;6.50;4.00;4.00
71794;PMS7003;59641;45.188;5.712;2023-12-04T07:57:12;6.00;6.00;4.00
71794;PMS7003;59641;45.188;5.712;2023-12-04T07:59:37;6.00;5.00;4.00
71794;PMS7003;59641;45.188;5.712;2023-12-04T08:02:02;4.00;3.50;3.00
71794;PMS7003;59641;45.188;5.712;2023-12-04T08:04:28;5.67;4.67;3.67
71794;PMS7003;59641;45.188;5.712;2023-12-04T08:06:53;5.75;4.50;3.50
71794;PMS7003;59641;45.188;5.712;2023-12-04T08:09:19;4.50;4.50;3.00
71794;PMS7003;59641;45.188;5.712;2023-12-04T08:11:44;6.50;4.25;3.00
71794;PMS7003;59641;45.188;5.712;2023-12-04T08:14:10;3.00;3.00;1.75
71794;PMS7003;59641;45.188;5.712;2023-12-04T08:16:35;5.75;5.50;4.00
71794;PMS7003;59641;45.188;5.712;2023-12-04T08:19:01;5.25;3.00;2.75
71794;PMS7003;59641;45.188;5.712;2023-12-04T08:21:26;5.00;5.00;4.00
71794;PMS7003;59641;45.188;5.712;2023-12-04T08:23:52;6.75;6.75;4.00
71794;PMS7003;59641;45.188;5.712;2023-12-04T08:26:21;8.00;5.00;3.25
71794;PMS7003;59641;45.188;5.712;2023-12-04T08:28:52;7.50;5.00;4.00
71794;PMS7003;59641;45.188;5.712;2023-12-04T08:31:17;4.75;4.75;4.00
71794;PMS7003;59641;45.188;5.712;2023-12-04T08:33:44;8.50;4.75;4.00
71794;PMS7003;59641;45.188;5.712;2023-12-04T08:36:10;4.00;4.00;3.00
71794;PMS7003;59641;45.188;5.712;2023-12-04T08:38:36;8.75;8.00;4.25
71794;PMS7003;59641;45.188;5.712;2023-12-04T08:41:02;7.50;5.25;4.25
71794;PMS7003;59641;45.188;5.712;2023-12-04T08:43:28;10.75;9.00;6.50
71794;PMS7003;59641;45.188;5.712;2023-12-04T08:45:54;6.75;3.75;2.75
71794;PMS7003;59641;45.188;5.712;2023-12-04T08:48:20;9.50;7.75;4.50
71794;PMS7003;59641;45.188;5.712;2023-12-04T08:50:45;7.75;6.25;4.00
71794;PMS7003;59641;45.188;5.712;2023-12-04T08:53:11;8.75;8.00;6.75
71794;PMS7003;59641;45.188;5.712;2023-12-04T08:55:37;4.50;4.00;2.00
71794;PMS7003;59641;45.188;5.712;2023-12-04T08:58:02;11.25;9.25;5.00
71794;PMS7003;59641;45.188;5.712;2023-12-04T09:00:28;8.00;7.75;6.50
71794;PMS7003;59641;45.188;5.712;2023-12-04T09:02:53;6.50;6.50;5.00
71794;PMS7003;59641;45.188;5.712;2023-12-04T09:05:19;5.00;5.00;4.00
71794;PMS7003;59641;45.188;5.712;2023-12-04T09:07:44;12.00;9.67;6.00
71794;PMS7003;59641;45.188;5.712;2023-12-04T09:10:10;9.00;9.00;6.00
71794;PMS7003;59641;45.188;5.712;2023-12-04T09:12:35;10.75;10.75;6.50
71794;PMS7003;59641;45.188;5.712;2023-12-04T09:15:03;4.00;4.00;3.75
71794;PMS7003;59641;45.188;5.712;2023-12-04T09:17:30;8.00;7.00;5.50
71794;PMS7003;59641;45.188;5.712;2023-12-04T09:19:55;8.00;8.00;5.00
71794;PMS7003;59641;45.188;5.712;2023-12-04T09:22:20;8.00;7.50;4.75
71794;PMS7003;59641;45.188;5.712;2023-12-04T09:24:46;3.00;3.00;2.00
71794;PMS7003;59641;45.188;5.712;2023-12-04T09:27:11;8.00;5.00;4.50
71794;PMS7003;59641;45.188;5.712;2023-12-04T09:29:36;7.50;7.50;5.00
71794;PMS7003;59641;45.188;5.712;2023-12-04T09:32:02;10.00;9.00;5.00
71794;PMS7003;59641;45.188;5.712;2023-12-04T09:34:28;6.33;5.00;3.33
71794;PMS7003;59641;45.188;5.712;2023-12-04T09:36:53;5.75;5.50;4.25
71794;PMS7003;59641;45.188;5.712;2023-12-04T09:39:19;6.25;4.00;4.00
71794;PMS7003;59641;45.188;5.712;2023-12-04T09:41:44;5.25;5.00;4.00
71794;PMS7003;59641;45.188;5.712;2023-12-04T09:44:11;5.25;5.00;4.75
71794;PMS7003;59641;45.188;5.712;2023-12-04T09:46:37;6.33;6.33;4.67
71794;PMS7003;59641;45.188;5.712;2023-12-04T09:49:04;6.67;5.00;4.00
71794;PMS7003;59641;45.188;5.712;2023-12-04T09:51:30;4.00;4.00;3.33
71794;PMS7003;59641;45.188;5.712;2023-12-04T09:53:57;5.67;5.00;4.00
71794;PMS7003;59641;45.188;5.712;2023-12-04T09:56:29;5.00;5.00;3.00
71794;PMS7003;59641;45.188;5.712;2023-12-04T09:58:57;6.00;5.00;3.00
71794;PMS7003;59641;45.188;5.712;2023-12-04T10:01:25;5.75;5.00;3.75
71794;PMS7003;59641;45.188;5.712;2023-12-04T10:03:51;4.75;4.75;3.50
71794;PMS7003;59641;45.188;5.712;2023-12-04T10:06:16;2.00;2.00;2.00
71794;PMS7003;59641;45.188;5.712;2023-12-04T10:08:42;2.00;2.00;1.25
71794;PMS7003;59641;45.188;5.712;2023-12-04T10:11:09;0.75;0.75;0.25
71794;PMS7003;59641;45.188;5.712;2023-12-04T10:13:35;0.50;0.50;0.50
71794;PMS7003;59641;45.188;5.712;2023-12-04T10:16:01;1.25;0.75;0.75
71794;PMS7003;59641;45.188;5.712;2023-12-04T10:18:28;0.00;0.00;0.00
71794;PMS7003;59641;45.188;5.712;2023-12-04T10:20:56;0.00;0.00;0.00
71794;PMS7003;59641;45.188;5.712;2023-12-04T10:23:35;2.75;1.25;1.00
71794;PMS7003;59641;45.188;5.712;2023-12-04T10:26:06;0.00;0.00;0.00
71794;PMS7003;59641;45.188;5.712;2023-12-04T10:28:35;2.50;0.00;0.00
71794;PMS7003;59641;45.188;5.712;2023-12-04T10:31:01;0.00;0.00;0.00
71794;PMS7003;59641;45.188;5.712;2023-12-04T10:33:28;1.00;1.00;0.00
71794;PMS7003;59641;45.188;5.712;2023-12-04T10:35:55;0.00;0.00;0.00
71794;PMS7003;59641;45.188;5.712;2023-12-04T10:38:21;2.00;0.00;0.00
71794;PMS7003;59641;45.188;5.712;2023-12-04T10:40:46;0.25;0.00;0.00
71794;PMS7003;59641;45.188;5.712;2023-12-04T10:43:16;0.50;0.50;0.00
71794;PMS7003;59641;45.188;5.712;2023-12-04T10:45:43;0.75;0.75;0.25
71794;PMS7003;59641;45.188;5.712;2023-12-04T10:48:11;1.75;1.00;0.00
71794;PMS7003;59641;45.188;5.712;2023-12-04T10:50:37;0.25;0.25;0.00
71794;PMS7003;59641;45.188;5.712;2023-12-04T10:53:04;0.00;0.00;0.00
71794;PMS7003;59641;45.188;5.712;2023-12-04T10:55:31;0.00;0.00;0.00
71794;PMS7003;59641;45.188;5.712;2023-12-04T10:57:57;1.00;1.00;0.00
71794;PMS7003;59641;45.188;5.712;2023-12-04T11:00:26;1.00;1.00;0.00
71794;PMS7003;59641;45.188;5.712;2023-12-04T11:02:54;0.20;0.20;0.00
71794;PMS7003;59641;45.188;5.712;2023-12-04T11:05:21;0.00;0.00;0.00
71794;PMS7003;59641;45.188;5.712;2023-12-04T11:07:56;0.00;0.00;0.00
71794;PMS7003;59641;45.188;5.712;2023-12-04T11:10:24;1.50;0.00;0.00
71794;PMS7003;59641;45.188;5.712;2023-12-04T11:12:56;1.60;0.80;0.00
71794;PMS7003;59641;45.188;5.712;2023-12-04T11:15:28;0.20;0.20;0.00
71794;PMS7003;59641;45.188;5.712;2023-12-04T11:17:58;0.00;0.00;0.00
71794;PMS7003;59641;45.188;5.712;2023-12-04T11:20:27;0.40;0.40;0.00
71794;PMS7003;59641;45.188;5.712;2023-12-04T11:22:54;0.00;0.00;0.00
71794;PMS7003;59641;45.188;5.712;2023-12-04T11:25:21;0.00;0.00;0.00
71794;PMS7003;59641;45.188;5.712;2023-12-04T11:27:49;0.00;0.00;0.00
71794;PMS7003;59641;45.188;5.712;2023-12-04T11:30:17;0.00;0.00;0.00
71794;PMS7003;59641;45.188;5.712;2023-12-04T11:32:43;1.00;1.00;0.00
71794;PMS7003;59641;45.188;5.712;2023-12-04T11:35:14;1.40;1.40;1.00
71794;PMS7003;59641;45.188;5.712;2023-12-04T11:37:42;2.75;2.75;1.00
71794;PMS7003;59641;45.188;5.712;2023-12-04T11:40:10;5.25;4.00;2.50
71794;PMS7003;59641;45.188;5.712;2023-12-04T11:42:37;2.80;2.80;2.60
71794;PMS7003;59641;45.188;5.712;2023-12-04T11:45:04;4.25;3.50;3.00
71794;PMS7003;59641;45.188;5.712;2023-12-04T11:47:30;4.50;3.00;2.00
71794;PMS7003;59641;45.188;5.712;2023-12-04T11:50:13;5.00;4.00;3.00
71794;PMS7003;59641;45.188;5.712;2023-12-04T11:52:38;7.75;6.00;4.00
71794;PMS7003;59641;45.188;5.712;2023-12-04T11:55:04;6.50;6.50;4.50
71794;PMS7003;59641;45.188;5.712;2023-12-04T11:57:39;6.50;6.50;5.00
71794;PMS7003;59641;45.188;5.712;2023-12-04T12:05:17;6.00;6.00;4.00
71794;PMS7003;59641;45.188;5.712;2023-12-04T12:07:42;8.00;8.00;5.00
71794;PMS7003;59641;45.188;5.712;2023-12-04T12:10:08;6.75;5.75;5.00
71794;PMS7003;59641;45.188;5.712;2023-12-04T12:12:34;3.00;2.75;2.75
71794;PMS7003;59641;45.188;5.712;2023-12-04T12:15:01;6.00;5.50;4.00
71794;PMS7003;59641;45.188;5.712;2023-12-04T12:17:27;7.00;7.00;5.00
71794;PMS7003;59641;45.188;5.712;2023-12-04T12:19:52;6.00;6.00;5.00
71794;PMS7003;59641;45.188;5.712;2023-12-04T12:22:21;7.75;5.00;4.75
71794;PMS7003;59641;45.188;5.712;2023-12-04T12:24:47;7.50;7.00;6.50
71794;PMS7003;59641;45.188;5.712;2023-12-04T12:27:12;5.25;4.75;3.00
71794;PMS7003;59641;45.188;5.712;2023-12-04T12:29:38;8.50;7.00;5.00
71794;PMS7003;59641;45.188;5.712;2023-12-04T12:32:03;8.00;8.00;5.75
71794;PMS7003;59641;45.188;5.712;2023-12-04T12:34:29;9.50;9.50;6.00
71794;PMS7003;59641;45.188;5.712;2023-12-04T12:36:56;8.75;7.75;6.25
71794;PMS7003;59641;45.188;5.712;2023-12-04T12:39:22;12.25;9.00;7.00
71794;PMS7003;59641;45.188;5.712;2023-12-04T12:41:48;11.25;9.00;8.00
71794;PMS7003;59641;45.188;5.712;2023-12-04T12:44:14;12.33;11.00;7.67
71794;PMS7003;59641;45.188;5.712;2023-12-04T12:46:41;14.00;12.67;8.00
71794;PMS7003;59641;45.188;5.712;2023-12-04T12:49:06;11.50;10.75;7.00
71794;PMS7003;59641;45.188;5.712;2023-12-04T12:51:32;13.25;11.00;9.00
71794;PMS7003;59641;45.188;5.712;2023-12-04T12:53:57;11.75;11.75;10.00
71794;PMS7003;59641;45.188;5.712;2023-12-04T12:56:24;12.67;12.67;10.67
71794;PMS7003;59641;45.188;5.712;2023-12-04T12:58:50;13.25;12.25;8.75
71794;PMS7003;59641;45.188;5.712;2023-12-04T13:01:16;13.00;12.00;8.50
71794;PMS7003;59641;45.188;5.712;2023-12-04T13:03:44;15.00;15.00;10.00
71794;PMS7003;59641;45.188;5.712;2023-12-04T13:06:12;9.67;9.00;6.00
71794;PMS7003;59641;45.188;5.712;2023-12-04T13:08:37;14.67;13.00;11.00
71794;PMS7003;59641;45.188;5.712;2023-12-04T13:11:02;16.33;13.33;8.00
71794;PMS7003;59641;45.188;5.712;2023-12-04T13:13:29;13.25;10.50;6.00
71794;PMS7003;59641;45.188;5.712;2023-12-04T13:15:55;11.33;11.00;9.33
71794;PMS7003;59641;45.188;5.712;2023-12-04T13:18:20;14.67;13.00;9.67
71794;PMS7003;59641;45.188;5.712;2023-12-04T13:20:45;13.67;12.00;10.67
71794;PMS7003;59641;45.188;5.712;2023-12-04T13:23:11;12.33;11.00;9.00
71794;PMS7003;59641;45.188;5.712;2023-12-04T13:25:36;9.67;5.33;4.00
71794;PMS7003;59641;45.188;5.712;2023-12-04T13:28:01;12.00;10.33;8.33
71794;PMS7003;59641;45.188;5.712;2023-12-04T13:30:27;11.00;11.00;7.33
71794;PMS7003;59641;45.188;5.712;2023-12-04T13:32:52;10.75;10.00;7.00
71794;PMS7003;59641;45.188;5.712;2023-12-04T13:35:17;12.50;11.75;8.75
71794;PMS7003;59641;45.188;5.712;2023-12-04T13:37:43;13.25;11.25;7.00
71794;PMS7003;59641;45.188;5.712;2023-12-04T13:40:09;11.25;10.75;7.25
71794;PMS7003;59641;45.188;5.712;2023-12-04T13:42:40;10.75;10.75;6.75
71794;PMS7003;59641;45.188;5.712;2023-12-04T13:45:25;10.00;10.00;9.25
71794;PMS7003;59641;45.188;5.712;2023-12-04T13:47:50;16.00;13.50;9.25
71794;PMS7003;59641;45.188;5.712;2023-12-04T13:50:16;9.50;9.50;6.75
71794;PMS7003;59641;45.188;5.712;2023-12-04T13:52:42;12.50;10.00;7.25
71794;PMS7003;59641;45.188;5.712;2023-12-04T13:55:08;11.00;11.00;7.25
71794;PMS7003;59641;45.188;5.712;2023-12-04T13:58:00;10.00;10.00;7.25
71794;PMS7003;59641;45.188;5.712;2023-12-04T14:00:29;11.25;11.00;9.00
71794;PMS7003;59641;45.188;5.712;2023-12-04T14:02:54;11.25;9.50;7.00
71794;PMS7003;59641;45.188;5.712;2023-12-04T14:05:29;7.00;7.00;5.75
71794;PMS7003;59641;45.188;5.712;2023-12-04T14:07:57;11.50;10.75;9.00
71794;PMS7003;59641;45.188;5.712;2023-12-04T14:10:24;12.00;11.00;6.67